Weather at Chino Airport

Public forecast

Using degrees Fahrenheit for public forecast. Weather courtesy of forecast.io.

Current aviation weather report (METAR) for Chino Airport

Retrieved 2021/08/05 10:53 UTC (1 hour ago):

KCNO 051053Z AUTO 24003KT 10SM CLR 20/14 A2990 RMK AO2 SLP117 T02000139

Closest aviation forecast (TAF) to Chino Airport

Closest forecast is Ontario International Airport, 5.2 nm (9.6 km) NNE. Retrieved 2021/08/05 06:22 UTC (6 hours ago):

TAF KONT 050520Z 0506/0612 VRB04KT P6SM SKC FM052100 26012G20KT P6SM SKC FM060500 VRB04KT P6SM SKC